sensor_id;sensor_type;location;lat;lon;timestamp;pressure;altitude;pressure_sealevel;temperature;humidity
43814;BME280;29669;55.706;37.656;2023-04-16T00:01:35;101510.28;;;4.46;nan
43814;BME280;29669;55.706;37.656;2023-04-16T00:04:03;101507.63;;;4.48;nan
43814;BME280;29669;55.706;37.656;2023-04-16T00:06:31;101503.31;;;4.48;nan
43814;BME280;29669;55.706;37.656;2023-04-16T00:08:58;101513.06;;;4.42;nan
43814;BME280;29669;55.706;37.656;2023-04-16T00:11:26;101520.03;;;4.40;nan
43814;BME280;29669;55.706;37.656;2023-04-16T00:13:54;101515.72;;;4.40;nan
43814;BME280;29669;55.706;37.656;2023-04-16T00:16:22;101514.00;;;4.41;nan
43814;BME280;29669;55.706;37.656;2023-04-16T00:18:50;101515.06;;;4.37;nan
43814;BME280;29669;55.706;37.656;2023-04-16T00:21:17;101519.69;;;4.30;nan
43814;BME280;29669;55.706;37.656;2023-04-16T00:23:45;101521.69;;;4.25;nan
43814;BME280;29669;55.706;37.656;2023-04-16T00:26:13;101520.25;;;4.20;nan
43814;BME280;29669;55.706;37.656;2023-04-16T00:28:43;101521.47;;;4.13;nan
43814;BME280;29669;55.706;37.656;2023-04-16T00:31:11;101520.13;;;4.06;nan
43814;BME280;29669;55.706;37.656;2023-04-16T00:33:39;101524.78;;;3.99;nan
43814;BME280;29669;55.706;37.656;2023-04-16T00:36:06;101529.97;;;3.98;nan
43814;BME280;29669;55.706;37.656;2023-04-16T00:38:36;101531.78;;;3.96;nan
43814;BME280;29669;55.706;37.656;2023-04-16T00:41:03;101524.22;;;3.93;nan
43814;BME280;29669;55.706;37.656;2023-04-16T00:43:31;101529.22;;;3.96;nan
43814;BME280;29669;55.706;37.656;2023-04-16T00:45:59;101523.41;;;3.92;nan
43814;BME280;29669;55.706;37.656;2023-04-16T00:48:27;101528.63;;;3.91;nan
43814;BME280;29669;55.706;37.656;2023-04-16T00:50:56;101525.38;;;3.87;nan
43814;BME280;29669;55.706;37.656;2023-04-16T00:53:24;101521.22;;;3.84;nan
43814;BME280;29669;55.706;37.656;2023-04-16T00:55:52;101524.53;;;3.87;nan
43814;BME280;29669;55.706;37.656;2023-04-16T00:58:20;101525.53;;;3.84;nan
43814;BME280;29669;55.706;37.656;2023-04-16T01:00:48;101518.16;;;3.78;nan
43814;BME280;29669;55.706;37.656;2023-04-16T01:03:15;101527.75;;;3.74;nan
43814;BME280;29669;55.706;37.656;2023-04-16T01:05:43;101520.19;;;3.71;nan
43814;BME280;29669;55.706;37.656;2023-04-16T01:08:18;101526.38;;;3.67;nan
43814;BME280;29669;55.706;37.656;2023-04-16T01:10:46;101524.13;;;3.61;nan
43814;BME280;29669;55.706;37.656;2023-04-16T01:13:14;101525.22;;;3.56;nan
43814;BME280;29669;55.706;37.656;2023-04-16T01:15:41;101519.44;;;3.52;nan
43814;BME280;29669;55.706;37.656;2023-04-16T01:18:13;101519.59;;;3.49;nan
43814;BME280;29669;55.706;37.656;2023-04-16T01:20:42;101518.06;;;3.45;nan
43814;BME280;29669;55.706;37.656;2023-04-16T01:23:10;101516.56;;;3.41;nan
43814;BME280;29669;55.706;37.656;2023-04-16T01:25:38;101518.38;;;3.39;nan
43814;BME280;29669;55.706;37.656;2023-04-16T01:28:06;101521.84;;;3.38;nan
43814;BME280;29669;55.706;37.656;2023-04-16T01:30:34;101520.34;;;3.34;nan
43814;BME280;29669;55.706;37.656;2023-04-16T01:33:17;101513.69;;;3.30;nan
43814;BME280;29669;55.706;37.656;2023-04-16T01:35:45;101514.66;;;3.28;nan
43814;BME280;29669;55.706;37.656;2023-04-16T01:38:14;101517.16;;;3.29;nan
43814;BME280;29669;55.706;37.656;2023-04-16T01:40:43;101518.75;;;3.32;nan
43814;BME280;29669;55.706;37.656;2023-04-16T01:43:11;101522.06;;;3.34;nan
43814;BME280;29669;55.706;37.656;2023-04-16T01:45:39;101520.19;;;3.37;nan
43814;BME280;29669;55.706;37.656;2023-04-16T01:48:06;101519.13;;;3.41;nan
43814;BME280;29669;55.706;37.656;2023-04-16T01:50:34;101518.00;;;3.47;nan
43814;BME280;29669;55.706;37.656;2023-04-16T01:53:02;101520.19;;;3.54;nan
43814;BME280;29669;55.706;37.656;2023-04-16T01:55:32;101517.41;;;3.59;nan
43814;BME280;29669;55.706;37.656;2023-04-16T01:58:00;101514.59;;;3.63;nan
43814;BME280;29669;55.706;37.656;2023-04-16T02:00:32;101517.03;;;3.66;nan
43814;BME280;29669;55.706;37.656;2023-04-16T02:03:00;101516.03;;;3.69;nan
43814;BME280;29669;55.706;37.656;2023-04-16T02:05:29;101516.72;;;3.72;nan
43814;BME280;29669;55.706;37.656;2023-04-16T02:07:57;101531.28;;;3.72;nan
43814;BME280;29669;55.706;37.656;2023-04-16T02:10:24;101518.66;;;3.67;nan
43814;BME280;29669;55.706;37.656;2023-04-16T02:12:56;101518.06;;;3.62;nan
43814;BME280;29669;55.706;37.656;2023-04-16T02:15:23;101529.41;;;3.58;nan
43814;BME280;29669;55.706;37.656;2023-04-16T02:17:54;101527.00;;;3.55;nan
43814;BME280;29669;55.706;37.656;2023-04-16T02:20:27;101519.38;;;3.54;nan
43814;BME280;29669;55.706;37.656;2023-04-16T02:22:58;101521.22;;;3.50;nan
43814;BME280;29669;55.706;37.656;2023-04-16T02:25:28;101523.88;;;3.49;nan
43814;BME280;29669;55.706;37.656;2023-04-16T02:27:58;101522.28;;;3.46;nan
43814;BME280;29669;55.706;37.656;2023-04-16T02:30:37;101527.75;;;3.40;nan
43814;BME280;29669;55.706;37.656;2023-04-16T02:33:07;101520.94;;;3.39;nan
43814;BME280;29669;55.706;37.656;2023-04-16T02:35:42;101526.16;;;3.38;nan
43814;BME280;29669;55.706;37.656;2023-04-16T02:38:17;101516.72;;;3.38;nan
43814;BME280;29669;55.706;37.656;2023-04-16T02:40:45;101522.75;;;3.37;nan
43814;BME280;29669;55.706;37.656;2023-04-16T02:47:25;101530.22;;;3.42;nan
43814;BME280;29669;55.706;37.656;2023-04-16T02:49:54;101534.44;;;3.43;nan
43814;BME280;29669;55.706;37.656;2023-04-16T02:52:22;101533.63;;;3.42;nan
43814;BME280;29669;55.706;37.656;2023-04-16T02:54:50;101525.84;;;3.44;nan
43814;BME280;29669;55.706;37.656;2023-04-16T02:57:19;101532.63;;;3.45;nan
43814;BME280;29669;55.706;37.656;2023-04-16T02:59:47;101536.03;;;3.45;nan
43814;BME280;29669;55.706;37.656;2023-04-16T03:02:16;101535.06;;;3.48;nan
43814;BME280;29669;55.706;37.656;2023-04-16T03:04:46;101535.97;;;3.47;nan
43814;BME280;29669;55.706;37.656;2023-04-16T03:07:15;101536.03;;;3.45;nan
43814;BME280;29669;55.706;37.656;2023-04-16T03:09:46;101540.25;;;3.46;nan
43814;BME280;29669;55.706;37.656;2023-04-16T03:12:17;101542.59;;;3.51;nan
43814;BME280;29669;55.706;37.656;2023-04-16T03:14:46;101541.56;;;3.55;nan
43814;BME280;29669;55.706;37.656;2023-04-16T03:17:16;101538.69;;;3.61;nan
43814;BME280;29669;55.706;37.656;2023-04-16T03:19:45;101539.38;;;3.64;nan
43814;BME280;29669;55.706;37.656;2023-04-16T03:22:14;101544.22;;;3.70;nan
43814;BME280;29669;55.706;37.656;2023-04-16T03:24:42;101545.56;;;3.77;nan
43814;BME280;29669;55.706;37.656;2023-04-16T03:27:14;101539.19;;;3.84;nan
43814;BME280;29669;55.706;37.656;2023-04-16T03:29:44;101546.78;;;3.88;nan
43814;BME280;29669;55.706;37.656;2023-04-16T03:32:12;101537.25;;;3.90;nan
43814;BME280;29669;55.706;37.656;2023-04-16T03:34:42;101543.81;;;3.95;nan
43814;BME280;29669;55.706;37.656;2023-04-16T03:37:11;101535.81;;;4.01;nan
43814;BME280;29669;55.706;37.656;2023-04-16T03:39:39;101530.28;;;4.09;nan
43814;BME280;29669;55.706;37.656;2023-04-16T03:42:10;101534.94;;;4.18;nan
43814;BME280;29669;55.706;37.656;2023-04-16T03:44:37;101539.75;;;4.24;nan
43814;BME280;29669;55.706;37.656;2023-04-16T03:47:05;101542.69;;;4.33;nan
43814;BME280;29669;55.706;37.656;2023-04-16T03:49:34;101535.28;;;4.43;nan
43814;BME280;29669;55.706;37.656;2023-04-16T03:52:03;101541.53;;;4.54;nan
43814;BME280;29669;55.706;37.656;2023-04-16T03:54:32;101539.94;;;4.67;nan
43814;BME280;29669;55.706;37.656;2023-04-16T03:57:12;101547.94;;;4.78;nan
43814;BME280;29669;55.706;37.656;2023-04-16T03:59:40;101535.41;;;4.88;nan
43814;BME280;29669;55.706;37.656;2023-04-16T04:02:07;101533.97;;;4.98;nan
43814;BME280;29669;55.706;37.656;2023-04-16T04:04:35;101546.34;;;5.07;nan
43814;BME280;29669;55.706;37.656;2023-04-16T04:07:03;101540.78;;;5.15;nan
43814;BME280;29669;55.706;37.656;2023-04-16T04:09:31;101546.41;;;5.21;nan
43814;BME280;29669;55.706;37.656;2023-04-16T04:12:02;101538.06;;;5.32;nan
43814;BME280;29669;55.706;37.656;2023-04-16T04:14:32;101538.25;;;5.44;nan
43814;BME280;29669;55.706;37.656;2023-04-16T04:17:00;101541.88;;;5.56;nan
43814;BME280;29669;55.706;37.656;2023-04-16T04:19:29;101533.50;;;5.66;nan
43814;BME280;29669;55.706;37.656;2023-04-16T04:21:57;101531.06;;;5.79;nan
43814;BME280;29669;55.706;37.656;2023-04-16T04:24:25;101532.03;;;5.92;nan
43814;BME280;29669;55.706;37.656;2023-04-16T04:26:53;101532.03;;;6.06;nan
43814;BME280;29669;55.706;37.656;2023-04-16T04:29:21;101532.84;;;6.21;nan
43814;BME280;29669;55.706;37.656;2023-04-16T04:31:49;101531.03;;;6.37;nan
43814;BME280;29669;55.706;37.656;2023-04-16T04:34:17;101529.34;;;6.50;nan
43814;BME280;29669;55.706;37.656;2023-04-16T04:36:48;101523.44;;;6.62;nan
43814;BME280;29669;55.706;37.656;2023-04-16T04:39:15;101524.44;;;6.74;nan
43814;BME280;29669;55.706;37.656;2023-04-16T04:41:43;101526.63;;;6.80;nan
43814;BME280;29669;55.706;37.656;2023-04-16T04:44:14;101527.81;;;6.88;nan
43814;BME280;29669;55.706;37.656;2023-04-16T04:46:41;101526.31;;;6.98;nan
43814;BME280;29669;55.706;37.656;2023-04-16T04:49:12;101531.41;;;7.12;nan
43814;BME280;29669;55.706;37.656;2023-04-16T04:51:40;101527.31;;;7.22;nan
43814;BME280;29669;55.706;37.656;2023-04-16T04:54:08;101526.72;;;7.31;nan
43814;BME280;29669;55.706;37.656;2023-04-16T04:56:36;101525.31;;;7.40;nan
43814;BME280;29669;55.706;37.656;2023-04-16T04:59:04;101521.81;;;7.53;nan
43814;BME280;29669;55.706;37.656;2023-04-16T05:01:32;101528.53;;;7.69;nan
43814;BME280;29669;55.706;37.656;2023-04-16T05:04:00;101525.16;;;7.81;nan
43814;BME280;29669;55.706;37.656;2023-04-16T05:06:28;101524.34;;;7.93;nan
43814;BME280;29669;55.706;37.656;2023-04-16T05:08:56;101527.22;;;8.01;nan
43814;BME280;29669;55.706;37.656;2023-04-16T05:11:23;101530.84;;;8.11;nan
43814;BME280;29669;55.706;37.656;2023-04-16T05:13:51;101529.31;;;8.21;nan
43814;BME280;29669;55.706;37.656;2023-04-16T05:16:19;101525.16;;;8.31;nan
43814;BME280;29669;55.706;37.656;2023-04-16T05:18:47;101533.13;;;8.40;nan
43814;BME280;29669;55.706;37.656;2023-04-16T05:21:14;101531.78;;;8.47;nan
43814;BME280;29669;55.706;37.656;2023-04-16T05:23:42;101531.25;;;8.55;nan
43814;BME280;29669;55.706;37.656;2023-04-16T05:26:09;101520.25;;;8.64;nan
43814;BME280;29669;55.706;37.656;2023-04-16T05:28:37;101527.69;;;8.69;nan
43814;BME280;29669;55.706;37.656;2023-04-16T05:31:05;101523.72;;;8.76;nan
43814;BME280;29669;55.706;37.656;2023-04-16T05:33:32;101518.72;;;8.85;nan
43814;BME280;29669;55.706;37.656;2023-04-16T05:36:00;101520.06;;;8.91;nan
43814;BME280;29669;55.706;37.656;2023-04-16T05:38:27;101519.94;;;8.92;nan
43814;BME280;29669;55.706;37.656;2023-04-16T05:40:56;101520.25;;;8.88;nan
43814;BME280;29669;55.706;37.656;2023-04-16T05:43:24;101523.19;;;8.83;nan
43814;BME280;29669;55.706;37.656;2023-04-16T05:45:52;101520.06;;;8.78;nan
43814;BME280;29669;55.706;37.656;2023-04-16T05:48:19;101518.75;;;8.73;nan
43814;BME280;29669;55.706;37.656;2023-04-16T05:50:48;101520.72;;;8.69;nan
43814;BME280;29669;55.706;37.656;2023-04-16T05:53:15;101517.44;;;8.67;nan
43814;BME280;29669;55.706;37.656;2023-04-16T05:55:45;101520.72;;;8.69;nan
43814;BME280;29669;55.706;37.656;2023-04-16T05:58:13;101516.16;;;8.73;nan
43814;BME280;29669;55.706;37.656;2023-04-16T06:00:40;101513.91;;;8.68;nan
43814;BME280;29669;55.706;37.656;2023-04-16T06:03:09;101512.84;;;8.71;nan
43814;BME280;29669;55.706;37.656;2023-04-16T06:05:37;101509.53;;;8.81;nan
43814;BME280;29669;55.706;37.656;2023-04-16T06:08:05;101512.41;;;8.89;nan
43814;BME280;29669;55.706;37.656;2023-04-16T06:10:32;101515.25;;;8.97;nan
43814;BME280;29669;55.706;37.656;2023-04-16T06:13:46;101510.59;;;9.02;nan
43814;BME280;29669;55.706;37.656;2023-04-16T06:16:17;101506.16;;;9.15;nan
43814;BME280;29669;55.706;37.656;2023-04-16T06:35:30;101505.09;;;10.31;nan
43814;BME280;29669;55.706;37.656;2023-04-16T06:37:57;101501.56;;;10.43;nan
43814;BME280;29669;55.706;37.656;2023-04-16T06:40:24;101504.50;;;10.61;nan
43814;BME280;29669;55.706;37.656;2023-04-16T06:42:52;101503.28;;;10.76;nan
43814;BME280;29669;55.706;37.656;2023-04-16T06:45:20;101499.34;;;10.93;nan
43814;BME280;29669;55.706;37.656;2023-04-16T06:47:50;101500.13;;;11.04;nan
43814;BME280;29669;55.706;37.656;2023-04-16T06:50:18;101498.19;;;11.17;nan
43814;BME280;29669;55.706;37.656;2023-04-16T06:52:46;101499.25;;;11.35;nan
43814;BME280;29669;55.706;37.656;2023-04-16T06:55:14;101496.25;;;11.51;nan
43814;BME280;29669;55.706;37.656;2023-04-16T06:57:42;101490.03;;;11.63;nan
43814;BME280;29669;55.706;37.656;2023-04-16T07:00:09;101489.63;;;11.79;nan
43814;BME280;29669;55.706;37.656;2023-04-16T07:02:38;101490.38;;;11.90;nan
43814;BME280;29669;55.706;37.656;2023-04-16T07:05:05;101481.25;;;12.05;nan
43814;BME280;29669;55.706;37.656;2023-04-16T07:07:33;101485.44;;;12.27;nan
43814;BME280;29669;55.706;37.656;2023-04-16T07:10:01;101485.50;;;12.46;nan
43814;BME280;29669;55.706;37.656;2023-04-16T07:12:29;101487.44;;;12.63;nan
43814;BME280;29669;55.706;37.656;2023-04-16T07:14:57;101479.25;;;12.77;nan
43814;BME280;29669;55.706;37.656;2023-04-16T07:17:25;101485.97;;;12.89;nan
43814;BME280;29669;55.706;37.656;2023-04-16T07:19:53;101475.69;;;12.97;nan
43814;BME280;29669;55.706;37.656;2023-04-16T07:22:20;101479.81;;;12.90;nan
43814;BME280;29669;55.706;37.656;2023-04-16T07:24:47;101473.94;;;12.98;nan
43814;BME280;29669;55.706;37.656;2023-04-16T07:27:15;101472.69;;;13.11;nan
43814;BME280;29669;55.706;37.656;2023-04-16T07:29:43;101475.72;;;13.36;nan
43814;BME280;29669;55.706;37.656;2023-04-16T07:32:12;101472.41;;;13.53;nan
43814;BME280;29669;55.706;37.656;2023-04-16T07:34:41;101472.38;;;13.62;nan
43814;BME280;29669;55.706;37.656;2023-04-16T07:37:09;101473.69;;;13.76;nan
43814;BME280;29669;55.706;37.656;2023-04-16T07:39:36;101472.97;;;13.93;nan
43814;BME280;29669;55.706;37.656;2023-04-16T07:42:03;101477.72;;;14.07;nan
43814;BME280;29669;55.706;37.656;2023-04-16T07:44:31;101470.69;;;14.17;nan
43814;BME280;29669;55.706;37.656;2023-04-16T07:46:58;101469.94;;;14.34;nan
43814;BME280;29669;55.706;37.656;2023-04-16T07:49:26;101471.38;;;14.46;nan
43814;BME280;29669;55.706;37.656;2023-04-16T07:51:54;101473.34;;;14.62;nan
43814;BME280;29669;55.706;37.656;2023-04-16T07:54:31;101467.53;;;14.68;nan
43814;BME280;29669;55.706;37.656;2023-04-16T07:57:34;101461.28;;;14.96;nan
43814;BME280;29669;55.706;37.656;2023-04-16T08:00:03;101458.34;;;15.17;nan
43814;BME280;29669;55.706;37.656;2023-04-16T08:02:40;101450.66;;;15.41;nan
43814;BME280;29669;55.706;37.656;2023-04-16T08:05:08;101446.91;;;15.61;nan
43814;BME280;29669;55.706;37.656;2023-04-16T08:07:35;101447.50;;;15.80;nan
43814;BME280;29669;55.706;37.656;2023-04-16T08:10:03;101446.38;;;15.83;nan
43814;BME280;29669;55.706;37.656;2023-04-16T08:12:32;101447.41;;;15.90;nan
43814;BME280;29669;55.706;37.656;2023-04-16T08:15:00;101439.78;;;16.05;nan
43814;BME280;29669;55.706;37.656;2023-04-16T08:17:29;101431.78;;;16.06;nan
43814;BME280;29669;55.706;37.656;2023-04-16T08:19:56;101437.31;;;16.03;nan
43814;BME280;29669;55.706;37.656;2023-04-16T08:22:24;101436.00;;;15.99;nan
43814;BME280;29669;55.706;37.656;2023-04-16T08:24:52;101426.56;;;15.80;nan
43814;BME280;29669;55.706;37.656;2023-04-16T08:27:22;101422.09;;;15.73;nan
43814;BME280;29669;55.706;37.656;2023-04-16T08:29:49;101430.31;;;15.44;nan
43814;BME280;29669;55.706;37.656;2023-04-16T08:32:34;101434.03;;;15.24;nan
43814;BME280;29669;55.706;37.656;2023-04-16T08:35:36;101434.03;;;15.42;nan
43814;BME280;29669;55.706;37.656;2023-04-16T08:48:13;101409.44;;;15.60;nan
43814;BME280;29669;55.706;37.656;2023-04-16T08:53:53;101407.28;;;15.56;nan
43814;BME280;29669;55.706;37.656;2023-04-16T08:56:30;101407.13;;;15.32;nan
43814;BME280;29669;55.706;37.656;2023-04-16T09:05:45;101392.50;;;15.21;nan
43814;BME280;29669;55.706;37.656;2023-04-16T09:08:28;101402.56;;;15.34;nan
43814;BME280;29669;55.706;37.656;2023-04-16T09:11:31;101391.69;;;15.46;nan
43814;BME280;29669;55.706;37.656;2023-04-16T09:13:59;101397.63;;;15.31;nan
43814;BME280;29669;55.706;37.656;2023-04-16T09:16:27;101395.22;;;15.12;nan
43814;BME280;29669;55.706;37.656;2023-04-16T09:18:59;101395.22;;;15.12;nan
43814;BME280;29669;55.706;37.656;2023-04-16T09:21:27;101382.84;;;15.22;nan
43814;BME280;29669;55.706;37.656;2023-04-16T09:23:54;101384.44;;;15.15;nan
43814;BME280;29669;55.706;37.656;2023-04-16T09:26:22;101376.91;;;15.12;nan
43814;BME280;29669;55.706;37.656;2023-04-16T09:28:50;101374.53;;;15.00;nan
43814;BME280;29669;55.706;37.656;2023-04-16T09:31:18;101383.59;;;14.88;nan
43814;BME280;29669;55.706;37.656;2023-04-16T09:34:05;101385.00;;;15.00;nan
43814;BME280;29669;55.706;37.656;2023-04-16T09:36:33;101382.84;;;15.22;nan
43814;BME280;29669;55.706;37.656;2023-04-16T09:39:01;101392.25;;;15.32;nan
43814;BME280;29669;55.706;37.656;2023-04-16T09:41:31;101384.38;;;15.50;nan
43814;BME280;29669;55.706;37.656;2023-04-16T09:43:59;101368.91;;;15.64;nan
43814;BME280;29669;55.706;37.656;2023-04-16T09:46:35;101383.50;;;15.67;nan
43814;BME280;29669;55.706;37.656;2023-04-16T09:49:09;101381.25;;;15.80;nan
43814;BME280;29669;55.706;37.656;2023-04-16T09:51:37;101378.88;;;16.02;nan
43814;BME280;29669;55.706;37.656;2023-04-16T09:54:05;101381.09;;;16.31;nan
43814;BME280;29669;55.706;37.656;2023-04-16T09:56:33;101375.56;;;16.50;nan
43814;BME280;29669;55.706;37.656;2023-04-16T09:59:05;101371.31;;;16.65;nan
43814;BME280;29669;55.706;37.656;2023-04-16T10:01:32;101366.91;;;16.74;nan
43814;BME280;29669;55.706;37.656;2023-04-16T10:04:10;101371.19;;;16.67;nan
43814;BME280;29669;55.706;37.656;2023-04-16T10:06:37;101374.13;;;16.72;nan
43814;BME280;29669;55.706;37.656;2023-04-16T10:09:05;101364.59;;;16.79;nan
43814;BME280;29669;55.706;37.656;2023-04-16T10:11:33;101370.03;;;16.85;nan
43814;BME280;29669;55.706;37.656;2023-04-16T10:14:02;101357.22;;;16.99;nan
43814;BME280;29669;55.706;37.656;2023-04-16T10:16:29;101358.38;;;16.96;nan
43814;BME280;29669;55.706;37.656;2023-04-16T10:18:57;101350.97;;;17.00;nan
43814;BME280;29669;55.706;37.656;2023-04-16T10:21:24;101357.22;;;17.07;nan
43814;BME280;29669;55.706;37.656;2023-04-16T10:24:22;101361.47;;;17.16;nan
43814;BME280;29669;55.706;37.656;2023-04-16T10:26:48;101352.94;;;17.22;nan
43814;BME280;29669;55.706;37.656;2023-04-16T10:32:08;101360.38;;;16.86;nan
43814;BME280;29669;55.706;37.656;2023-04-16T10:34:39;101353.16;;;16.56;nan
43814;BME280;29669;55.706;37.656;2023-04-16T10:37:09;101351.31;;;16.56;nan
43814;BME280;29669;55.706;37.656;2023-04-16T10:39:51;101347.41;;;16.92;nan
43814;BME280;29669;55.706;37.656;2023-04-16T10:47:27;101343.06;;;17.32;nan
43814;BME280;29669;55.706;37.656;2023-04-16T10:50:14;101345.56;;;17.17;nan
43814;BME280;29669;55.706;37.656;2023-04-16T10:55:55;101333.47;;;16.68;nan
43814;BME280;29669;55.706;37.656;2023-04-16T10:58:30;101335.78;;;16.55;nan
43814;BME280;29669;55.706;37.656;2023-04-16T11:00:58;101337.69;;;16.45;nan
43814;BME280;29669;55.706;37.656;2023-04-16T11:03:30;101332.28;;;16.38;nan
43814;BME280;29669;55.706;37.656;2023-04-16T11:06:22;101333.59;;;16.42;nan
43814;BME280;29669;55.706;37.656;2023-04-16T11:08:51;101333.63;;;16.50;nan
43814;BME280;29669;55.706;37.656;2023-04-16T11:11:21;101317.91;;;16.50;nan
43814;BME280;29669;55.706;37.656;2023-04-16T11:13:52;101319.88;;;16.48;nan
43814;BME280;29669;55.706;37.656;2023-04-16T11:16:23;101318.22;;;16.47;nan
43814;BME280;29669;55.706;37.656;2023-04-16T11:18:51;101313.13;;;16.46;nan
43814;BME280;29669;55.706;37.656;2023-04-16T11:21:20;101312.03;;;16.48;nan
43814;BME280;29669;55.706;37.656;2023-04-16T11:23:49;101314.94;;;16.45;nan
43814;BME280;29669;55.706;37.656;2023-04-16T11:26:24;101309.19;;;16.42;nan
43814;BME280;29669;55.706;37.656;2023-04-16T11:28:53;101303.63;;;16.45;nan
43814;BME280;29669;55.706;37.656;2023-04-16T11:31:22;101309.19;;;16.34;nan
43814;BME280;29669;55.706;37.656;2023-04-16T11:33:50;101300.19;;;16.36;nan
43814;BME280;29669;55.706;37.656;2023-04-16T11:36:17;101300.50;;;16.33;nan
43814;BME280;29669;55.706;37.656;2023-04-16T11:38:45;101298.84;;;16.24;nan
43814;BME280;29669;55.706;37.656;2023-04-16T11:41:18;101290.03;;;16.25;nan
43814;BME280;29669;55.706;37.656;2023-04-16T11:43:45;101294.28;;;16.26;nan
43814;BME280;29669;55.706;37.656;2023-04-16T11:46:13;101290.81;;;16.26;nan
43814;BME280;29669;55.706;37.656;2023-04-16T11:48:53;101277.72;;;16.26;nan
43814;BME280;29669;55.706;37.656;2023-04-16T11:51:22;101273.28;;;16.18;nan
43814;BME280;29669;55.706;37.656;2023-04-16T11:53:51;101275.28;;;16.08;nan
43814;BME280;29669;55.706;37.656;2023-04-16T11:56:26;101280.81;;;15.97;nan
43814;BME280;29669;55.706;37.656;2023-04-16T11:59:17;101273.94;;;15.96;nan
43814;BME280;29669;55.706;37.656;2023-04-16T12:01:47;101275.56;;;16.05;nan
43814;BME280;29669;55.706;37.656;2023-04-16T12:04:21;101266.25;;;16.11;nan
43814;BME280;29669;55.706;37.656;2023-04-16T12:07:03;101268.38;;;16.15;nan
43814;BME280;29669;55.706;37.656;2023-04-16T12:09:31;101264.13;;;16.06;nan
43814;BME280;29669;55.706;37.656;2023-04-16T12:11:58;101259.69;;;15.98;nan
43814;BME280;29669;55.706;37.656;2023-04-16T12:14:26;101252.34;;;16.02;nan
43814;BME280;29669;55.706;37.656;2023-04-16T12:16:55;101246.78;;;16.13;nan
43814;BME280;29669;55.706;37.656;2023-04-16T12:19:24;101242.69;;;16.19;nan
43814;BME280;29669;55.706;37.656;2023-04-16T12:21:51;101245.47;;;16.25;nan
43814;BME280;29669;55.706;37.656;2023-04-16T12:24:20;101241.88;;;16.42;nan
43814;BME280;29669;55.706;37.656;2023-04-16T12:26:52;101240.56;;;16.62;nan
43814;BME280;29669;55.706;37.656;2023-04-16T12:29:24;101235.97;;;16.72;nan
43814;BME280;29669;55.706;37.656;2023-04-16T12:31:52;101228.75;;;16.74;nan
43814;BME280;29669;55.706;37.656;2023-04-16T12:34:21;101237.63;;;16.57;nan
43814;BME280;29669;55.706;37.656;2023-04-16T12:37:05;101229.09;;;16.47;nan
43814;BME280;29669;55.706;37.656;2023-04-16T12:39:38;101230.75;;;16.56;nan
43814;BME280;29669;55.706;37.656;2023-04-16T12:42:06;101229.91;;;16.80;nan
43814;BME280;29669;55.706;37.656;2023-04-16T12:44:36;101228.00;;;17.82;nan
43814;BME280;29669;55.706;37.656;2023-04-16T12:47:08;101227.44;;;19.56;nan
43814;BME280;29669;55.706;37.656;2023-04-16T12:49:38;101208.56;;;20.93;nan
43814;BME280;29669;55.706;37.656;2023-04-16T12:52:06;101212.06;;;21.47;nan
43814;BME280;29669;55.706;37.656;2023-04-16T12:54:34;101203.44;;;21.92;nan
43814;BME280;29669;55.706;37.656;2023-04-16T12:57:02;101208.13;;;22.16;nan
43814;BME280;29669;55.706;37.656;2023-04-16T12:59:29;101209.38;;;22.60;nan
43814;BME280;29669;55.706;37.656;2023-04-16T13:01:59;101204.16;;;23.04;nan
43814;BME280;29669;55.706;37.656;2023-04-16T13:04:27;101199.03;;;23.22;nan
43814;BME280;29669;55.706;37.656;2023-04-16T13:06:55;101193.78;;;23.53;nan
43814;BME280;29669;55.706;37.656;2023-04-16T13:09:22;101188.69;;;24.14;nan
43814;BME280;29669;55.706;37.656;2023-04-16T13:11:51;101192.91;;;24.46;nan
43814;BME280;29669;55.706;37.656;2023-04-16T13:14:19;101190.13;;;24.59;nan
43814;BME280;29669;55.706;37.656;2023-04-16T13:16:46;101196.44;;;25.01;nan
43814;BME280;29669;55.706;37.656;2023-04-16T13:19:14;101190.84;;;25.57;nan
43814;BME280;29669;55.706;37.656;2023-04-16T13:21:42;101186.06;;;25.88;nan
43814;BME280;29669;55.706;37.656;2023-04-16T13:24:09;101182.88;;;26.33;nan
43814;BME280;29669;55.706;37.656;2023-04-16T13:26:37;101182.41;;;26.82;nan
43814;BME280;29669;55.706;37.656;2023-04-16T13:29:04;101178.34;;;26.68;nan
43814;BME280;29669;55.706;37.656;2023-04-16T13:31:31;101174.88;;;26.56;nan
43814;BME280;29669;55.706;37.656;2023-04-16T13:33:59;101173.72;;;26.52;nan
43814;BME280;29669;55.706;37.656;2023-04-16T13:36:27;101165.09;;;25.80;nan
43814;BME280;29669;55.706;37.656;2023-04-16T13:38:57;101167.16;;;25.67;nan
43814;BME280;29669;55.706;37.656;2023-04-16T13:41:25;101168.59;;;25.92;nan
43814;BME280;29669;55.706;37.656;2023-04-16T13:43:55;101157.28;;;26.08;nan
43814;BME280;29669;55.706;37.656;2023-04-16T13:46:22;101161.56;;;26.44;nan
43814;BME280;29669;55.706;37.656;2023-04-16T13:48:50;101151.75;;;26.22;nan
43814;BME280;29669;55.706;37.656;2023-04-16T13:51:18;101146.16;;;26.81;nan
43814;BME280;29669;55.706;37.656;2023-04-16T13:53:45;101145.75;;;27.73;nan
43814;BME280;29669;55.706;37.656;2023-04-16T13:56:13;101141.69;;;28.37;nan
43814;BME280;29669;55.706;37.656;2023-04-16T13:58:41;101142.34;;;27.61;nan
43814;BME280;29669;55.706;37.656;2023-04-16T14:01:08;101155.13;;;25.64;nan
43814;BME280;29669;55.706;37.656;2023-04-16T14:03:36;101151.94;;;24.17;nan
43814;BME280;29669;55.706;37.656;2023-04-16T14:06:05;101141.28;;;24.42;nan
43814;BME280;29669;55.706;37.656;2023-04-16T14:08:32;101149.34;;;25.38;nan
43814;BME280;29669;55.706;37.656;2023-04-16T14:11:00;101146.66;;;26.20;nan